createdAt,value
2023-05-21T00:00:25.755Z,11.8
2023-05-21T00:01:25.832Z,11.7
2023-05-21T00:02:25.786Z,11.7
2023-05-21T00:03:25.838Z,11.7
2023-05-21T00:04:25.744Z,11.7
2023-05-21T00:05:25.758Z,11.7
2023-05-21T00:06:25.812Z,11.7
2023-05-21T00:07:26.235Z,11.7
2023-05-21T00:09:25.739Z,11.6
2023-05-21T00:10:25.761Z,11.6
2023-05-21T00:11:28.602Z,11.6
2023-05-21T00:12:31.450Z,11.6
2023-05-21T00:13:25.738Z,11.5
2023-05-21T00:14:25.749Z,11.5
2023-05-21T00:15:25.762Z,11.5
2023-05-21T00:16:25.777Z,11.4
2023-05-21T00:17:25.897Z,11.4
2023-05-21T00:18:25.745Z,11.4
2023-05-21T00:19:25.815Z,11.4
2023-05-21T00:20:25.769Z,11.3
2023-05-21T00:21:25.746Z,11.3
2023-05-21T00:22:25.878Z,11.3
2023-05-21T00:23:25.919Z,11.3
2023-05-21T00:25:25.743Z,11.3
2023-05-21T00:26:25.738Z,11.3
2023-05-21T00:27:25.947Z,11.2
2023-05-21T00:28:25.740Z,11.2
2023-05-21T00:29:25.740Z,11.2
2023-05-21T00:30:25.782Z,11.2
2023-05-21T00:31:25.762Z,11.2
2023-05-21T00:32:26.092Z,11.2
2023-05-21T00:33:29.029Z,11.2
2023-05-21T00:34:31.914Z,11.2
2023-05-21T00:35:25.732Z,11.2
2023-05-21T00:36:25.799Z,11.1
2023-05-21T00:37:26.082Z,11.1
2023-05-21T00:38:25.921Z,11.1
2023-05-21T00:39:25.922Z,11.1
2023-05-21T00:40:26.021Z,11.1
2023-05-21T00:41:25.746Z,11.1
2023-05-21T00:42:25.985Z,11
2023-05-21T00:43:25.751Z,11
2023-05-21T00:44:25.748Z,11
2023-05-21T00:45:25.795Z,11
2023-05-21T00:46:25.792Z,11
2023-05-21T00:47:26.062Z,11
2023-05-21T00:48:25.732Z,10.9
2023-05-21T00:49:25.750Z,10.9
2023-05-21T00:50:25.746Z,10.9
2023-05-21T00:51:25.740Z,10.9
2023-05-21T00:52:25.982Z,10.9
2023-05-21T00:53:26.168Z,10.9
2023-05-21T00:54:29.140Z,10.9
2023-05-21T00:55:32.055Z,10.8
2023-05-21T00:56:25.744Z,10.8
2023-05-21T00:57:25.912Z,10.8
2023-05-21T00:58:25.751Z,10.8
2023-05-21T00:59:25.749Z,10.8
2023-05-21T01:00:25.740Z,10.8
2023-05-21T01:01:25.782Z,10.7
2023-05-21T01:02:26.160Z,10.7
2023-05-21T01:03:25.839Z,10.7
2023-05-21T01:04:25.844Z,10.7
2023-05-21T01:05:25.741Z,10.7
2023-05-21T01:06:25.736Z,10.6
2023-05-21T01:07:25.995Z,10.6
2023-05-21T01:08:25.759Z,10.6
2023-05-21T01:09:25.740Z,10.6
2023-05-21T01:10:25.756Z,10.6
2023-05-21T01:11:25.734Z,10.6
2023-05-21T01:12:25.930Z,10.6
2023-05-21T01:13:25.757Z,10.6
2023-05-21T01:14:26.243Z,10.6
2023-05-21T01:15:29.250Z,10.6
2023-05-21T01:16:32.173Z,10.5
2023-05-21T01:17:25.887Z,10.5
2023-05-21T01:18:25.781Z,10.5
2023-05-21T01:19:25.760Z,10.5
2023-05-21T01:20:25.738Z,10.4
2023-05-21T01:21:25.744Z,10.4
2023-05-21T01:22:25.908Z,10.4
2023-05-21T01:23:25.744Z,10.4
2023-05-21T01:24:25.746Z,10.4
2023-05-21T01:25:25.735Z,10.4
2023-05-21T01:26:25.736Z,10.4
2023-05-21T01:27:25.738Z,10.3
2023-05-21T01:28:25.735Z,10.3
2023-05-21T01:29:25.736Z,10.3
2023-05-21T01:30:25.737Z,10.3
2023-05-21T01:31:25.744Z,10.2
2023-05-21T01:32:26.052Z,10.2
2023-05-21T01:33:25.808Z,10.2
2023-05-21T01:34:25.738Z,10.2
2023-05-21T01:35:26.309Z,10.2
2023-05-21T01:36:29.319Z,10.2
2023-05-21T01:37:32.131Z,10.2
2023-05-21T01:38:25.740Z,10.1
2023-05-21T01:39:25.799Z,10.1
2023-05-21T01:40:25.758Z,10.1
2023-05-21T01:41:25.736Z,10.1
2023-05-21T01:42:25.938Z,10.1
2023-05-21T01:43:25.740Z,10.1
2023-05-21T01:44:25.745Z,10.1
2023-05-21T01:45:25.758Z,10.1
2023-05-21T01:46:25.757Z,10.1
2023-05-21T01:47:26.009Z,10
2023-05-21T01:48:25.741Z,10
2023-05-21T01:49:25.739Z,10
2023-05-21T01:50:25.792Z,10
2023-05-21T01:51:25.744Z,10
2023-05-21T01:52:25.948Z,10
2023-05-21T01:53:25.745Z,10
2023-05-21T01:54:25.739Z,10
2023-05-21T01:55:25.757Z,9.9
2023-05-21T01:56:26.461Z,9.9
2023-05-21T01:57:29.526Z,9.9
2023-05-21T01:58:32.317Z,9.9
2023-05-21T01:59:25.759Z,9.9
2023-05-21T02:00:25.738Z,9.9
2023-05-21T02:01:25.795Z,9.9
2023-05-21T02:02:26.022Z,9.9
2023-05-21T02:03:25.809Z,9.9
2023-05-21T02:04:25.772Z,9.9
2023-05-21T02:05:25.742Z,9.8
2023-05-21T02:06:25.745Z,9.9
2023-05-21T02:07:26.022Z,9.8
2023-05-21T02:08:25.759Z,9.8
2023-05-21T02:09:25.782Z,9.8
2023-05-21T02:10:25.753Z,9.8
2023-05-21T02:11:25.733Z,9.8
2023-05-21T02:12:25.913Z,9.8
2023-05-21T02:13:26.680Z,9.8
2023-05-21T02:14:25.763Z,9.8
2023-05-21T02:15:25.758Z,9.8
2023-05-21T02:16:25.781Z,9.8
2023-05-21T02:17:26.710Z,9.8
2023-05-21T02:18:29.594Z,9.8
2023-05-21T02:19:31.982Z,9.8
2023-05-21T02:20:25.764Z,9.8
2023-05-21T02:21:25.764Z,9.8
2023-05-21T02:22:26.157Z,9.8
2023-05-21T02:23:25.743Z,9.7
2023-05-21T02:24:25.741Z,9.7
2023-05-21T02:25:25.771Z,9.7
2023-05-21T02:26:25.742Z,9.7
2023-05-21T02:27:25.954Z,9.7
2023-05-21T02:28:25.752Z,9.7
2023-05-21T02:29:25.757Z,9.7
2023-05-21T02:30:25.759Z,9.7
2023-05-21T02:31:25.742Z,9.7
2023-05-21T02:32:26.084Z,9.7
2023-05-21T02:33:25.742Z,9.7
2023-05-21T02:34:25.810Z,9.7
2023-05-21T02:35:25.784Z,9.6
2023-05-21T02:36:25.754Z,9.6
2023-05-21T02:37:25.880Z,9.6
2023-05-21T02:38:26.720Z,9.6
2023-05-21T02:39:29.634Z,9.6
2023-05-21T02:40:32.520Z,9.5
2023-05-21T02:41:25.747Z,9.5
2023-05-21T02:42:25.940Z,9.5
2023-05-21T02:43:25.768Z,9.5
2023-05-21T02:44:25.750Z,9.5
2023-05-21T02:45:25.775Z,9.5
2023-05-21T02:46:25.830Z,9.5
2023-05-21T02:47:26.073Z,9.5
2023-05-21T02:48:25.760Z,9.5
2023-05-21T02:49:25.748Z,9.4
2023-05-21T02:50:25.741Z,9.4
2023-05-21T02:51:25.766Z,9.4
2023-05-21T02:52:26.071Z,9.4
2023-05-21T02:53:25.745Z,9.4
2023-05-21T02:54:25.745Z,9.4
2023-05-21T02:55:25.748Z,9.4
2023-05-21T02:56:25.758Z,9.4
2023-05-21T02:57:26.100Z,9.4
2023-05-21T02:58:25.745Z,9.5
2023-05-21T02:59:26.353Z,9.5
2023-05-21T03:00:29.323Z,9.4
2023-05-21T03:01:32.779Z,9.4
2023-05-21T03:02:25.959Z,9.4
2023-05-21T03:03:25.852Z,9.5
2023-05-21T03:04:25.735Z,9.5
2023-05-21T03:05:25.737Z,9.5
2023-05-21T03:06:25.755Z,9.4
2023-05-21T03:07:25.992Z,9.5
2023-05-21T03:08:25.738Z,9.5
2023-05-21T03:09:25.754Z,9.5
2023-05-21T03:10:25.739Z,9.5
2023-05-21T03:11:25.739Z,9.5
2023-05-21T03:12:26.024Z,9.5
2023-05-21T03:13:25.814Z,9.4
2023-05-21T03:14:25.744Z,9.5
2023-05-21T03:15:25.738Z,9.5
2023-05-21T03:16:25.760Z,9.5
2023-05-21T03:17:25.962Z,9.4
2023-05-21T03:18:25.745Z,9.4
2023-05-21T03:19:25.841Z,9.4
2023-05-21T03:20:26.919Z,9.4
2023-05-21T03:21:29.879Z,9.4
2023-05-21T03:22:32.748Z,9.4
2023-05-21T03:23:25.750Z,9.4
2023-05-21T03:24:25.764Z,9.4
2023-05-21T03:25:25.763Z,9.4
2023-05-21T03:26:25.745Z,9.4
2023-05-21T03:27:25.880Z,9.4
2023-05-21T03:28:25.738Z,9.4
2023-05-21T03:29:25.767Z,9.4
2023-05-21T03:30:25.739Z,9.4
2023-05-21T03:31:25.775Z,9.4
2023-05-21T03:32:26.031Z,9.4
2023-05-21T03:33:25.748Z,9.4
2023-05-21T03:34:25.757Z,9.4
2023-05-21T03:35:25.748Z,9.3
2023-05-21T03:36:25.742Z,9.3
2023-05-21T03:37:25.932Z,9.3
2023-05-21T03:38:25.747Z,9.3
2023-05-21T03:39:25.770Z,9.3
2023-05-21T03:40:25.746Z,9.3
2023-05-21T03:41:27.202Z,9.3
2023-05-21T03:42:29.934Z,9.3
2023-05-21T03:43:32.861Z,9.3
2023-05-21T03:44:25.745Z,9.3
2023-05-21T03:45:25.790Z,9.2
2023-05-21T03:46:25.758Z,9.2
2023-05-21T03:47:26.125Z,9.2
2023-05-21T03:48:25.743Z,9.2
2023-05-21T03:49:25.745Z,9.2
2023-05-21T03:50:25.771Z,9.2
2023-05-21T03:51:25.768Z,9.2
2023-05-21T03:52:25.772Z,9.2
2023-05-21T03:53:25.741Z,9.2
2023-05-21T03:54:25.743Z,9.2
2023-05-21T03:55:25.771Z,9.3
2023-05-21T03:56:25.742Z,9.2
2023-05-21T03:57:26.165Z,9.3
2023-05-21T03:58:25.756Z,9.2
2023-05-21T03:59:25.749Z,9.3
2023-05-21T04:00:25.746Z,9.3
2023-05-21T04:01:25.739Z,9.3
2023-05-21T04:02:27.030Z,9.3
2023-05-21T04:03:30.196Z,9.3
2023-05-21T04:04:32.998Z,9.3
2023-05-21T04:05:25.744Z,9.3
2023-05-21T04:06:25.893Z,9.3
2023-05-21T04:07:25.943Z,9.3
2023-05-21T04:08:25.737Z,9.4
2023-05-21T04:09:25.747Z,9.3
2023-05-21T04:10:25.758Z,9.4
2023-05-21T04:11:25.757Z,9.4
2023-05-21T04:12:25.898Z,9.4
2023-05-21T04:13:25.732Z,9.4
2023-05-21T04:14:25.762Z,9.4
2023-05-21T04:15:25.741Z,9.5
2023-05-21T04:16:25.803Z,9.5
2023-05-21T04:17:26.022Z,9.5
2023-05-21T04:18:25.741Z,9.5
2023-05-21T04:19:25.779Z,9.5
2023-05-21T04:20:25.742Z,9.6
2023-05-21T04:21:25.746Z,9.6
2023-05-21T04:22:25.925Z,9.6
2023-05-21T04:23:25.746Z,9.6
2023-05-21T04:24:27.252Z,9.6
2023-05-21T04:25:30.762Z,9.6
2023-05-21T04:26:25.740Z,9.7
2023-05-21T04:27:25.977Z,9.7
2023-05-21T04:28:25.744Z,9.7
2023-05-21T04:29:25.760Z,9.7
2023-05-21T04:30:25.743Z,9.8
2023-05-21T04:31:25.809Z,9.8
2023-05-21T04:32:26.045Z,9.8
2023-05-21T04:33:25.752Z,9.8
2023-05-21T04:34:25.762Z,9.8
2023-05-21T04:35:25.773Z,9.8
2023-05-21T04:36:25.770Z,9.8
2023-05-21T04:37:25.998Z,9.8
2023-05-21T04:38:25.741Z,9.8
2023-05-21T04:39:25.750Z,9.8
2023-05-21T04:40:25.742Z,9.9
2023-05-21T04:41:25.758Z,9.9
2023-05-21T04:42:26.004Z,9.9
2023-05-21T04:43:25.819Z,9.9
2023-05-21T04:44:25.740Z,10
2023-05-21T04:45:27.780Z,10
2023-05-21T04:46:30.864Z,10
2023-05-21T04:48:25.745Z,10.1
2023-05-21T04:49:25.748Z,10.1
2023-05-21T04:50:25.743Z,10.1
2023-05-21T04:51:25.741Z,10.2
2023-05-21T04:52:26.123Z,10.2
2023-05-21T04:53:25.749Z,10.3
2023-05-21T04:54:25.757Z,10.3
2023-05-21T04:55:25.749Z,10.3
2023-05-21T04:56:25.744Z,10.4
2023-05-21T04:57:25.804Z,10.4
2023-05-21T04:58:25.738Z,10.4
2023-05-21T04:59:25.744Z,10.4
2023-05-21T05:00:25.754Z,10.5
2023-05-21T05:01:25.815Z,10.5
2023-05-21T05:02:26.044Z,10.5
2023-05-21T05:03:25.845Z,10.6
2023-05-21T05:04:25.743Z,10.6
2023-05-21T05:05:25.748Z,10.6
2023-05-21T05:06:27.850Z,10.6
2023-05-21T05:07:30.916Z,10.6
2023-05-21T05:08:25.751Z,10.6
2023-05-21T05:09:25.761Z,10.7
2023-05-21T05:10:25.736Z,10.7
2023-05-21T05:11:25.746Z,10.7
2023-05-21T05:12:25.955Z,10.8
2023-05-21T05:13:25.900Z,10.8
2023-05-21T05:14:25.744Z,10.8
2023-05-21T05:15:25.747Z,10.9
2023-05-21T05:16:25.875Z,10.9
2023-05-21T05:17:25.993Z,11
2023-05-21T05:18:25.764Z,11
2023-05-21T05:19:25.769Z,11
2023-05-21T05:20:25.751Z,11.1
2023-05-21T05:21:25.762Z,11.1
2023-05-21T05:22:26.104Z,11.1
2023-05-21T05:23:25.746Z,11.2
2023-05-21T05:24:25.746Z,11.2
2023-05-21T05:25:25.745Z,11.3
2023-05-21T05:26:25.760Z,11.3
2023-05-21T05:27:27.974Z,11.3
2023-05-21T05:28:30.970Z,11.4
2023-05-21T05:29:25.747Z,11.4
2023-05-21T05:30:25.746Z,11.4
2023-05-21T05:31:25.814Z,11.5
2023-05-21T05:32:25.948Z,11.5
2023-05-21T05:33:25.743Z,11.6
2023-05-21T05:34:25.822Z,11.6
2023-05-21T05:35:25.746Z,11.7
2023-05-21T05:36:25.743Z,11.7
2023-05-21T05:37:25.976Z,11.7
2023-05-21T05:38:25.743Z,11.7
2023-05-21T05:39:25.770Z,11.7
2023-05-21T05:40:25.751Z,11.7
2023-05-21T05:41:25.753Z,11.8
2023-05-21T05:42:25.967Z,11.9
2023-05-21T05:43:25.754Z,11.9
2023-05-21T05:44:25.759Z,11.9
2023-05-21T05:45:25.754Z,12
2023-05-21T05:46:25.753Z,12
2023-05-21T05:47:25.957Z,12
2023-05-21T05:48:28.052Z,12
2023-05-21T05:49:31.082Z,12.1
2023-05-21T05:50:25.767Z,12.1
2023-05-21T05:51:25.744Z,12.2
2023-05-21T05:52:26.020Z,12.2
2023-05-21T05:53:25.744Z,12.2
2023-05-21T05:54:25.738Z,12.3
2023-05-21T05:55:25.897Z,12.3
2023-05-21T05:56:25.749Z,12.3
2023-05-21T05:57:26.097Z,12.4
2023-05-21T05:58:25.755Z,12.4
2023-05-21T05:59:25.749Z,12.5
2023-05-21T06:00:25.739Z,12.5
2023-05-21T06:01:25.739Z,12.6
2023-05-21T06:02:26.104Z,12.6
2023-05-21T06:03:25.873Z,12.6
2023-05-21T06:04:25.748Z,12.7
2023-05-21T06:05:25.762Z,12.7
2023-05-21T06:06:25.741Z,12.7
2023-05-21T06:07:26.009Z,12.8
2023-05-21T06:08:25.734Z,12.8
2023-05-21T06:09:28.235Z,12.8
2023-05-21T06:10:31.201Z,12.8
2023-05-21T06:11:25.779Z,12.9
2023-05-21T06:12:26.145Z,12.9
2023-05-21T06:13:25.743Z,12.9
2023-05-21T06:14:25.758Z,13
2023-05-21T06:15:25.743Z,13
2023-05-21T06:16:25.780Z,13
2023-05-21T06:17:26.034Z,13.1
2023-05-21T06:18:25.747Z,13
2023-05-21T06:19:25.764Z,13.1
2023-05-21T06:20:25.741Z,13.1
2023-05-21T06:21:25.766Z,13.1
2023-05-21T06:22:26.018Z,13.1
2023-05-21T06:23:25.743Z,13.1
2023-05-21T06:24:25.750Z,13.1
2023-05-21T06:25:25.757Z,13.1
2023-05-21T06:26:25.775Z,13.2
2023-05-21T06:27:25.996Z,13.2
2023-05-21T06:28:25.745Z,13.2
2023-05-21T06:29:25.751Z,13.2
2023-05-21T06:30:28.227Z,13.2
2023-05-21T06:31:31.236Z,13.3
2023-05-21T06:32:26.230Z,13.3
2023-05-21T06:33:25.797Z,13.3
2023-05-21T06:34:25.764Z,13.3
2023-05-21T06:35:25.744Z,13.4
2023-05-21T06:36:25.754Z,13.4
2023-05-21T06:37:26.713Z,13.4
2023-05-21T06:38:25.740Z,13.4
2023-05-21T06:39:25.746Z,13.4
2023-05-21T06:40:25.747Z,13.5
2023-05-21T06:41:25.742Z,13.5
2023-05-21T06:42:25.997Z,13.5
2023-05-21T06:43:25.753Z,13.5
2023-05-21T06:44:25.740Z,13.6
2023-05-21T06:45:25.743Z,13.6
2023-05-21T06:46:25.769Z,13.7
2023-05-21T06:47:26.013Z,13.7
2023-05-21T06:48:25.744Z,13.8
2023-05-21T06:49:25.743Z,13.8
2023-05-21T06:50:25.742Z,13.8
2023-05-21T06:51:28.290Z,13.8
2023-05-21T06:52:31.209Z,13.8
2023-05-21T06:53:25.754Z,13.8
2023-05-21T06:54:26.876Z,13.9
2023-05-21T06:55:25.751Z,13.9
2023-05-21T06:56:25.745Z,13.9
2023-05-21T06:57:26.015Z,13.9
2023-05-21T06:58:25.752Z,13.9
2023-05-21T06:59:25.757Z,14
2023-05-21T07:00:25.749Z,14.1
2023-05-21T07:01:25.770Z,14.1
2023-05-21T07:02:26.134Z,14.1
2023-05-21T07:03:25.825Z,14.2
2023-05-21T07:04:25.741Z,14.2
2023-05-21T07:05:25.758Z,14.3
2023-05-21T07:06:25.749Z,14.3
2023-05-21T07:07:25.902Z,14.4
2023-05-21T07:08:25.934Z,14.4
2023-05-21T07:09:25.747Z,14.5
2023-05-21T07:10:25.810Z,14.6
2023-05-21T07:11:25.733Z,14.6
2023-05-21T07:12:28.406Z,14.6
2023-05-21T07:13:31.326Z,14.7
2023-05-21T07:14:25.776Z,14.7
2023-05-21T07:15:25.735Z,14.7
2023-05-21T07:16:25.759Z,14.8
2023-05-21T07:17:26.001Z,14.9
2023-05-21T07:18:25.741Z,14.9
2023-05-21T07:19:25.841Z,15
2023-05-21T07:20:25.747Z,15
2023-05-21T07:21:25.808Z,15
2023-05-21T07:22:28.032Z,15
2023-05-21T07:23:25.738Z,15.1
2023-05-21T07:24:25.735Z,15.1
2023-05-21T07:25:25.748Z,15.1
2023-05-21T07:26:25.741Z,15.2
2023-05-21T07:27:26.385Z,15.2
2023-05-21T07:28:25.746Z,15.2
2023-05-21T07:29:25.739Z,15.3
2023-05-21T07:30:25.741Z,15.3
2023-05-21T07:31:25.790Z,15.4
2023-05-21T07:32:26.011Z,15.4
2023-05-21T07:33:28.572Z,15.4
2023-05-21T07:34:31.442Z,15.5
2023-05-21T07:35:25.762Z,15.5
2023-05-21T07:36:25.739Z,15.6
2023-05-21T07:37:26.178Z,15.6
2023-05-21T07:38:25.739Z,15.7
2023-05-21T07:39:25.738Z,15.7
2023-05-21T07:40:25.769Z,15.8
2023-05-21T07:41:25.744Z,15.8
2023-05-21T07:42:25.882Z,15.8
2023-05-21T07:43:25.745Z,15.8
2023-05-21T07:44:25.756Z,15.8
2023-05-21T07:45:25.769Z,15.8
2023-05-21T07:46:25.763Z,15.8
2023-05-21T07:47:26.079Z,15.8
2023-05-21T07:48:25.742Z,15.8
2023-05-21T07:49:25.741Z,15.8
2023-05-21T07:50:25.767Z,15.8
2023-05-21T07:51:25.750Z,15.8
2023-05-21T07:52:26.128Z,15.8
2023-05-21T07:53:25.741Z,15.8
2023-05-21T07:54:25.893Z,15.8
2023-05-21T07:55:28.710Z,15.8
2023-05-21T07:56:31.548Z,15.8
2023-05-21T07:57:26.076Z,15.8
2023-05-21T07:58:25.752Z,15.8
2023-05-21T07:59:25.775Z,15.8
2023-05-21T08:00:25.758Z,15.9
2023-05-21T08:01:25.742Z,15.9
2023-05-21T08:02:26.091Z,15.9
2023-05-21T08:03:25.840Z,15.9
2023-05-21T08:04:25.847Z,15.9
2023-05-21T08:05:25.750Z,16
2023-05-21T08:06:25.743Z,16
2023-05-21T08:07:26.116Z,16
2023-05-21T08:08:25.748Z,16.1
2023-05-21T08:09:25.773Z,16.1
2023-05-21T08:10:25.758Z,16.1
2023-05-21T08:11:25.744Z,16.1
2023-05-21T08:12:25.930Z,16.2
2023-05-21T08:13:25.744Z,16.2
2023-05-21T08:14:25.773Z,16.2
2023-05-21T08:15:25.953Z,16.3
2023-05-21T08:16:28.753Z,16.3
2023-05-21T08:17:31.577Z,16.3
2023-05-21T08:18:25.746Z,16.4
2023-05-21T08:19:25.834Z,16.5
2023-05-21T08:20:25.740Z,16.6
2023-05-21T08:21:25.742Z,16.6
2023-05-21T08:22:26.010Z,16.7
2023-05-21T08:23:25.754Z,16.8
2023-05-21T08:24:25.746Z,16.9
2023-05-21T08:25:25.748Z,17
2023-05-21T08:26:25.751Z,17.2
2023-05-21T08:27:26.199Z,17.3
2023-05-21T08:28:25.743Z,17.4
2023-05-21T08:29:25.759Z,17.4
2023-05-21T08:30:25.748Z,17.5
2023-05-21T08:31:25.748Z,17.6
2023-05-21T08:32:25.888Z,17.6
2023-05-21T08:33:25.737Z,17.7
2023-05-21T08:34:25.738Z,17.7
2023-05-21T08:35:25.744Z,17.8
2023-05-21T08:36:26.043Z,17.8
2023-05-21T08:37:28.857Z,17.8
2023-05-21T08:38:31.678Z,17.9
2023-05-21T08:39:25.742Z,17.9
2023-05-21T08:40:25.754Z,18
2023-05-21T08:41:25.744Z,18
2023-05-21T08:42:36.068Z,18
2023-05-21T08:43:25.748Z,18
2023-05-21T08:44:25.782Z,18
2023-05-21T08:45:25.750Z,18.1
2023-05-21T08:46:25.849Z,18.1
2023-05-21T08:47:26.024Z,18.1
2023-05-21T08:48:25.747Z,18.1
2023-05-21T08:49:27.261Z,18.1
2023-05-21T08:50:25.776Z,18.1
2023-05-21T08:51:25.745Z,18.1
2023-05-21T08:52:26.082Z,18
2023-05-21T08:53:28.447Z,17.9
2023-05-21T08:54:25.738Z,17.9
2023-05-21T08:55:25.756Z,17.9
2023-05-21T08:56:25.751Z,17.9
2023-05-21T08:57:26.141Z,17.9
2023-05-21T08:58:28.968Z,17.9
2023-05-21T08:59:31.325Z,17.9
2023-05-21T09:00:25.740Z,17.9
2023-05-21T09:01:26.597Z,17.9
2023-05-21T09:02:26.071Z,18
2023-05-21T09:03:25.805Z,18
2023-05-21T09:04:26.194Z,18
2023-05-21T09:05:25.769Z,18.1
2023-05-21T09:06:25.744Z,18.1
2023-05-21T09:07:26.007Z,18.2
2023-05-21T09:08:25.748Z,18.3
2023-05-21T09:09:25.756Z,18.3
2023-05-21T09:10:25.737Z,18.3
2023-05-21T09:11:25.749Z,18.4
2023-05-21T09:12:26.125Z,18.4
2023-05-21T09:13:25.746Z,18.4
2023-05-21T09:14:25.767Z,18.4
2023-05-21T09:15:25.758Z,18.4
2023-05-21T09:16:25.762Z,18.4
2023-05-21T09:17:26.174Z,18.4
2023-05-21T09:18:26.178Z,18.4
2023-05-21T09:19:29.395Z,18.4
2023-05-21T09:20:31.968Z,18.4
2023-05-21T09:21:25.745Z,18.5
2023-05-21T09:22:26.167Z,18.5
2023-05-21T09:23:25.739Z,18.7
2023-05-21T09:24:25.975Z,18.7
2023-05-21T09:25:25.738Z,18.7
2023-05-21T09:26:25.747Z,18.8
2023-05-21T09:27:26.208Z,18.9
2023-05-21T09:28:25.755Z,18.9
2023-05-21T09:29:25.748Z,19
2023-05-21T09:30:28.790Z,19
2023-05-21T09:31:25.797Z,19.1
2023-05-21T09:32:26.088Z,19.1
2023-05-21T09:33:25.749Z,19.1
2023-05-21T09:34:25.739Z,19.2
2023-05-21T09:35:25.778Z,19.2
2023-05-21T09:36:25.748Z,19.2
2023-05-21T09:37:27.327Z,19.3
2023-05-21T09:38:25.752Z,19.4
2023-05-21T09:39:26.184Z,19.4
2023-05-21T09:40:29.149Z,19.4
2023-05-21T09:41:32.023Z,19.4
2023-05-21T09:42:26.029Z,19.5
2023-05-21T09:43:25.742Z,19.5
2023-05-21T09:44:25.735Z,19.7
2023-05-21T09:45:25.737Z,19.7
2023-05-21T09:46:25.809Z,19.7
2023-05-21T09:47:26.022Z,19.7
2023-05-21T09:48:25.744Z,19.8
2023-05-21T09:49:25.743Z,19.8
2023-05-21T09:50:26.245Z,19.9
2023-05-21T09:51:25.736Z,20
2023-05-21T09:52:25.952Z,20.1
2023-05-21T09:53:25.748Z,20.1
2023-05-21T09:54:25.740Z,20.2
2023-05-21T09:55:25.759Z,20.2
2023-05-21T09:56:25.743Z,20.3
2023-05-21T09:57:25.977Z,20.3
2023-05-21T09:58:25.740Z,20.5
2023-05-21T09:59:25.739Z,20.5
2023-05-21T10:00:26.400Z,20.5
2023-05-21T10:01:29.230Z,20.6
2023-05-21T10:02:32.123Z,20.7
2023-05-21T10:03:25.761Z,20.7
2023-05-21T10:04:25.769Z,20.7
2023-05-21T10:05:25.762Z,20.7
2023-05-21T10:06:25.739Z,20.7
2023-05-21T10:07:26.189Z,20.8
2023-05-21T10:08:25.735Z,20.8
2023-05-21T10:09:25.750Z,20.8
2023-05-21T10:10:25.759Z,20.8
2023-05-21T10:11:25.920Z,20.8
2023-05-21T10:12:26.065Z,20.9
2023-05-21T10:13:25.750Z,20.9
2023-05-21T10:14:25.738Z,20.9
2023-05-21T10:15:25.738Z,20.9
2023-05-21T10:16:25.846Z,21
2023-05-21T10:17:26.113Z,21
2023-05-21T10:18:25.747Z,21
2023-05-21T10:19:25.871Z,21.2
2023-05-21T10:20:25.741Z,21.2
2023-05-21T10:21:26.403Z,21.2
2023-05-21T10:22:29.421Z,21.2
2023-05-21T10:23:32.207Z,21.2
2023-05-21T10:24:25.740Z,21.3
2023-05-21T10:25:25.760Z,21.3
2023-05-21T10:26:25.739Z,21.4
2023-05-21T10:27:26.002Z,21.4
2023-05-21T10:28:25.750Z,21.4
2023-05-21T10:29:25.738Z,21.4
2023-05-21T10:30:25.779Z,21.4
2023-05-21T10:32:26.309Z,21.4
2023-05-21T10:33:25.777Z,21.5
2023-05-21T10:34:25.739Z,21.5
2023-05-21T10:35:25.754Z,21.5
2023-05-21T10:37:26.008Z,21.5
2023-05-21T10:38:25.752Z,21.6
2023-05-21T10:39:25.746Z,21.6
2023-05-21T10:40:25.781Z,21.8
2023-05-21T10:41:25.763Z,21.9
2023-05-21T10:42:26.647Z,21.9
2023-05-21T10:43:29.516Z,21.9
2023-05-21T10:44:32.484Z,22
2023-05-21T10:45:25.762Z,22
2023-05-21T10:46:25.738Z,22
2023-05-21T10:47:26.215Z,22
2023-05-21T10:48:25.737Z,22
2023-05-21T10:49:25.750Z,22
2023-05-21T10:50:25.746Z,22
2023-05-21T10:51:25.759Z,22
2023-05-21T10:52:26.009Z,22
2023-05-21T10:53:25.740Z,22
2023-05-21T10:54:25.922Z,22
2023-05-21T10:55:25.738Z,22
2023-05-21T10:56:25.748Z,21.9
2023-05-21T10:57:26.127Z,21.9
2023-05-21T10:58:26.516Z,21.9
2023-05-21T10:59:25.749Z,21.9
2023-05-21T11:00:25.749Z,22
2023-05-21T11:01:25.795Z,22
2023-05-21T11:02:26.238Z,22
2023-05-21T11:03:26.189Z,22
2023-05-21T11:04:29.000Z,22
2023-05-21T11:05:26.389Z,22.1
2023-05-21T11:06:32.067Z,22.1
2023-05-21T11:07:26.091Z,22.3
2023-05-21T11:08:25.747Z,22.3
2023-05-21T11:09:25.745Z,22.3
2023-05-21T11:10:25.765Z,22.4
2023-05-21T11:11:25.739Z,22.4
2023-05-21T11:12:26.030Z,22.4
2023-05-21T11:13:25.742Z,22.5
2023-05-21T11:14:25.745Z,22.5
2023-05-21T11:15:25.900Z,22.6
2023-05-21T11:16:25.789Z,22.7
2023-05-21T11:17:25.906Z,22.7
2023-05-21T11:18:25.750Z,22.7
2023-05-21T11:19:25.746Z,22.6
2023-05-21T11:20:25.750Z,22.6
2023-05-21T11:21:25.752Z,22.6
2023-05-21T11:22:26.046Z,22.6
2023-05-21T11:23:25.743Z,22.6
2023-05-21T11:24:25.743Z,22.5
2023-05-21T11:25:26.831Z,22.5
2023-05-21T11:26:29.685Z,22.6
2023-05-21T11:27:32.718Z,22.6
2023-05-21T11:28:25.744Z,22.6
2023-05-21T11:29:25.744Z,22.6
2023-05-21T11:30:25.749Z,22.6
2023-05-21T11:31:25.818Z,22.7
2023-05-21T11:32:26.091Z,22.7
2023-05-21T11:33:25.743Z,22.7
2023-05-21T11:34:25.744Z,22.7
2023-05-21T11:35:25.775Z,22.7
2023-05-21T11:36:25.745Z,22.9
2023-05-21T11:37:26.035Z,22.9
2023-05-21T11:38:25.737Z,22.9
2023-05-21T11:39:25.749Z,22.7
2023-05-21T11:40:25.794Z,22.7
2023-05-21T11:41:25.744Z,22.9
2023-05-21T11:42:26.112Z,22.7
2023-05-21T11:43:25.744Z,22.7
2023-05-21T11:44:25.738Z,22.7
2023-05-21T11:45:25.773Z,22.7
2023-05-21T11:46:26.893Z,22.7
2023-05-21T11:47:29.866Z,22.7
2023-05-21T11:48:32.850Z,22.7
2023-05-21T11:49:25.749Z,22.7
2023-05-21T11:50:25.787Z,22.7
2023-05-21T11:51:25.742Z,22.9
2023-05-21T11:52:26.058Z,22.9
2023-05-21T11:53:25.748Z,22.7
2023-05-21T11:54:25.744Z,22.7
2023-05-21T11:55:25.773Z,22.7
2023-05-21T11:56:25.793Z,22.7
2023-05-21T11:57:26.074Z,22.7
2023-05-21T11:58:25.742Z,22.7
2023-05-21T11:59:25.760Z,22.7
2023-05-21T12:00:25.744Z,22.7
2023-05-21T12:01:25.745Z,22.7
2023-05-21T12:02:26.094Z,22.7
2023-05-21T12:03:25.792Z,22.7
2023-05-21T12:04:25.759Z,22.7
2023-05-21T12:05:25.747Z,22.7
2023-05-21T12:06:25.807Z,22.9
2023-05-21T12:07:26.934Z,22.9
2023-05-21T12:08:29.878Z,22.9
2023-05-21T12:09:32.891Z,22.9
2023-05-21T12:10:25.753Z,23
2023-05-21T12:11:25.890Z,23
2023-05-21T12:12:25.874Z,23
2023-05-21T12:13:25.747Z,23.1
2023-05-21T12:14:25.786Z,23.2
2023-05-21T12:15:25.810Z,23.4
2023-05-21T12:16:25.763Z,23.4
2023-05-21T12:17:26.055Z,23.4
2023-05-21T12:18:25.762Z,23.4
2023-05-21T12:19:25.802Z,23.4
2023-05-21T12:20:25.747Z,23.5
2023-05-21T12:21:25.743Z,23.5
2023-05-21T12:22:26.026Z,23.5
2023-05-21T12:23:25.749Z,23.5
2023-05-21T12:24:25.748Z,23.6
2023-05-21T12:25:25.753Z,23.6
2023-05-21T12:26:25.758Z,23.8
2023-05-21T12:27:26.071Z,23.9
2023-05-21T12:28:27.038Z,23.9
2023-05-21T12:29:30.043Z,23.9
2023-05-21T12:30:33.043Z,24
2023-05-21T12:31:25.799Z,24
2023-05-21T12:32:26.307Z,24
2023-05-21T12:33:25.746Z,24.1
2023-05-21T12:34:25.758Z,24.1
2023-05-21T12:35:25.752Z,24.1
2023-05-21T12:36:25.738Z,24.1
2023-05-21T12:37:26.108Z,24
2023-05-21T12:38:25.842Z,24
2023-05-21T12:39:25.766Z,24
2023-05-21T12:40:25.744Z,24
2023-05-21T12:41:25.739Z,24.1
2023-05-21T12:42:25.843Z,24.1
2023-05-21T12:43:25.738Z,24.1
2023-05-21T12:44:25.874Z,24
2023-05-21T12:45:25.748Z,24
2023-05-21T12:46:25.765Z,24
2023-05-21T12:47:25.766Z,24
2023-05-21T12:48:25.742Z,24
2023-05-21T12:49:27.199Z,24
2023-05-21T12:50:30.199Z,24
2023-05-21T12:51:33.187Z,24
2023-05-21T12:52:25.741Z,24
2023-05-21T12:53:25.739Z,24
2023-05-21T12:54:25.809Z,24.1
2023-05-21T12:55:25.795Z,24.1
2023-05-21T12:56:25.743Z,24
2023-05-21T12:57:25.748Z,24
2023-05-21T12:58:25.762Z,24
2023-05-21T12:59:25.772Z,24.1
2023-05-21T13:00:25.740Z,24.1
2023-05-21T13:01:25.886Z,24.1
2023-05-21T13:02:25.780Z,24.1
2023-05-21T13:03:25.852Z,24.1
2023-05-21T13:04:25.788Z,24.3
2023-05-21T13:05:25.747Z,24.3
2023-05-21T13:06:25.760Z,24.4
2023-05-21T13:07:25.738Z,24.4
2023-05-21T13:08:25.737Z,24.5
2023-05-21T13:09:25.742Z,24.5
2023-05-21T13:10:27.260Z,24.5
2023-05-21T13:11:30.285Z,24.7
2023-05-21T13:12:33.285Z,24.7
2023-05-21T13:13:25.775Z,24.8
2023-05-21T13:14:25.813Z,24.8
2023-05-21T13:15:25.759Z,24.9
2023-05-21T13:16:25.818Z,24.9
2023-05-21T13:17:25.879Z,24.9
2023-05-21T13:18:25.802Z,25.1
2023-05-21T13:19:26.014Z,25.1
2023-05-21T13:20:25.747Z,25.1
2023-05-21T13:21:25.741Z,25.2
2023-05-21T13:22:25.742Z,25.2
2023-05-21T13:23:25.744Z,25.2
2023-05-21T13:24:25.943Z,25.2
2023-05-21T13:25:25.743Z,25.2
2023-05-21T13:26:25.748Z,25.2
2023-05-21T13:27:25.747Z,25.2
2023-05-21T13:28:25.743Z,25.2
2023-05-21T13:29:25.767Z,25.2
2023-05-21T13:30:25.742Z,25.2
2023-05-21T13:31:27.299Z,25.2
2023-05-21T13:32:30.433Z,25.3
2023-05-21T13:33:33.370Z,25.2
2023-05-21T13:34:25.744Z,25.2
2023-05-21T13:35:25.741Z,25.2